sensor_id;sensor_type;location;lat;lon;timestamp;noise_LAeq;noise_LA_min;noise_LA_max;noise_LA01;noise_LA95
72686;Laerm;61365;52.162;4.500;2023-06-14T00:02:10;40.66;32.16;44.12;;
72686;Laerm;61365;52.162;4.500;2023-06-14T00:04:36;40.73;32.35;50.49;;
72686;Laerm;61365;52.162;4.500;2023-06-14T00:07:05;40.82;32.28;45.04;;
72686;Laerm;61365;52.162;4.500;2023-06-14T00:09:34;40.79;31.93;44.31;;
72686;Laerm;61365;52.162;4.500;2023-06-14T00:12:01;40.54;31.99;44.21;;
72686;Laerm;61365;52.162;4.500;2023-06-14T00:14:27;40.70;32.36;44.07;;
72686;Laerm;61365;52.162;4.500;2023-06-14T00:16:53;40.61;32.35;44.28;;
72686;Laerm;61365;52.162;4.500;2023-06-14T00:19:26;40.72;32.04;44.43;;
72686;Laerm;61365;52.162;4.500;2023-06-14T00:21:53;40.65;32.40;44.15;;
72686;Laerm;61365;52.162;4.500;2023-06-14T00:24:19;40.79;32.61;44.17;;
72686;Laerm;61365;52.162;4.500;2023-06-14T00:26:45;40.95;32.44;44.49;;
72686;Laerm;61365;52.162;4.500;2023-06-14T00:29:12;40.85;32.48;52.21;;
72686;Laerm;61365;52.162;4.500;2023-06-14T00:31:38;40.77;32.21;43.90;;
72686;Laerm;61365;52.162;4.500;2023-06-14T00:34:04;40.69;32.12;44.11;;
72686;Laerm;61365;52.162;4.500;2023-06-14T00:36:30;40.64;32.32;44.12;;
72686;Laerm;61365;52.162;4.500;2023-06-14T00:38:56;40.92;31.96;51.89;;
72686;Laerm;61365;52.162;4.500;2023-06-14T00:41:22;40.68;32.45;44.42;;
72686;Laerm;61365;52.162;4.500;2023-06-14T00:43:48;40.84;32.19;44.35;;
72686;Laerm;61365;52.162;4.500;2023-06-14T00:46:14;40.88;32.80;44.48;;
72686;Laerm;61365;52.162;4.500;2023-06-14T00:48:40;40.96;32.28;44.09;;
72686;Laerm;61365;52.162;4.500;2023-06-14T00:51:08;40.99;32.11;44.47;;
72686;Laerm;61365;52.162;4.500;2023-06-14T00:53:34;40.91;32.40;44.28;;
72686;Laerm;61365;52.162;4.500;2023-06-14T00:56:02;41.00;32.29;44.45;;
72686;Laerm;61365;52.162;4.500;2023-06-14T00:58:29;40.99;32.46;44.32;;
72686;Laerm;61365;52.162;4.500;2023-06-14T01:00:55;41.03;32.10;44.35;;
72686;Laerm;61365;52.162;4.500;2023-06-14T01:03:22;41.00;32.24;44.14;;
72686;Laerm;61365;52.162;4.500;2023-06-14T01:05:59;40.86;32.41;44.08;;
72686;Laerm;61365;52.162;4.500;2023-06-14T01:08:47;40.99;32.20;52.35;;
72686;Laerm;61365;52.162;4.500;2023-06-14T01:11:26;41.00;32.47;52.32;;
72686;Laerm;61365;52.162;4.500;2023-06-14T01:13:56;41.20;32.74;44.47;;
72686;Laerm;61365;52.162;4.500;2023-06-14T01:16:23;41.29;32.40;44.30;;
72686;Laerm;61365;52.162;4.500;2023-06-14T01:18:52;41.08;32.72;44.33;;
72686;Laerm;61365;52.162;4.500;2023-06-14T01:21:23;41.15;32.21;44.22;;
72686;Laerm;61365;52.162;4.500;2023-06-14T01:23:50;41.11;32.37;50.53;;
72686;Laerm;61365;52.162;4.500;2023-06-14T01:26:23;41.12;33.01;44.19;;
72686;Laerm;61365;52.162;4.500;2023-06-14T01:28:50;41.16;32.83;44.07;;
72686;Laerm;61365;52.162;4.500;2023-06-14T01:31:20;41.16;32.87;43.97;;
72686;Laerm;61365;52.162;4.500;2023-06-14T01:33:51;41.36;32.83;44.29;;
72686;Laerm;61365;52.162;4.500;2023-06-14T01:36:22;41.13;32.78;44.25;;
72686;Laerm;61365;52.162;4.500;2023-06-14T01:38:52;41.28;32.17;44.43;;
72686;Laerm;61365;52.162;4.500;2023-06-14T01:41:20;41.13;32.95;44.32;;
72686;Laerm;61365;52.162;4.500;2023-06-14T01:43:48;41.17;32.43;44.34;;
72686;Laerm;61365;52.162;4.500;2023-06-14T01:46:16;41.10;32.53;44.19;;
72686;Laerm;61365;52.162;4.500;2023-06-14T01:48:43;41.06;32.42;44.13;;
72686;Laerm;61365;52.162;4.500;2023-06-14T01:51:09;41.05;32.54;52.23;;
72686;Laerm;61365;52.162;4.500;2023-06-14T01:53:35;41.09;32.43;44.49;;
72686;Laerm;61365;52.162;4.500;2023-06-14T01:56:02;41.34;32.85;44.34;;
72686;Laerm;61365;52.162;4.500;2023-06-14T01:58:28;41.26;32.64;44.44;;
72686;Laerm;61365;52.162;4.500;2023-06-14T02:00:54;41.01;32.94;44.14;;
72686;Laerm;61365;52.162;4.500;2023-06-14T02:03:23;41.09;32.57;44.21;;
72686;Laerm;61365;52.162;4.500;2023-06-14T02:05:50;41.25;32.39;44.06;;
72686;Laerm;61365;52.162;4.500;2023-06-14T02:08:16;41.17;32.25;44.09;;
72686;Laerm;61365;52.162;4.500;2023-06-14T02:10:42;41.19;32.84;44.03;;
72686;Laerm;61365;52.162;4.500;2023-06-14T02:13:09;41.22;32.86;44.01;;
72686;Laerm;61365;52.162;4.500;2023-06-14T02:15:35;41.20;32.23;44.20;;
72686;Laerm;61365;52.162;4.500;2023-06-14T02:18:02;41.16;32.65;44.06;;
72686;Laerm;61365;52.162;4.500;2023-06-14T02:20:29;41.53;32.84;44.52;;
72686;Laerm;61365;52.162;4.500;2023-06-14T02:22:56;41.33;32.74;44.39;;
72686;Laerm;61365;52.162;4.500;2023-06-14T02:25:23;41.19;32.76;50.58;;
72686;Laerm;61365;52.162;4.500;2023-06-14T02:27:49;41.19;33.06;44.30;;
72686;Laerm;61365;52.162;4.500;2023-06-14T02:30:15;41.42;32.65;44.59;;
72686;Laerm;61365;52.162;4.500;2023-06-14T02:32:42;41.23;33.04;44.00;;
72686;Laerm;61365;52.162;4.500;2023-06-14T02:35:08;41.34;32.68;44.23;;
72686;Laerm;61365;52.162;4.500;2023-06-14T02:37:35;41.15;32.97;44.15;;
72686;Laerm;61365;52.162;4.500;2023-06-14T02:40:01;41.48;32.72;44.92;;
72686;Laerm;61365;52.162;4.500;2023-06-14T02:42:27;41.21;32.80;44.13;;
72686;Laerm;61365;52.162;4.500;2023-06-14T02:44:53;41.20;32.87;44.15;;
72686;Laerm;61365;52.162;4.500;2023-06-14T02:47:19;41.22;32.93;51.66;;
72686;Laerm;61365;52.162;4.500;2023-06-14T02:49:45;41.26;32.70;52.29;;
72686;Laerm;61365;52.162;4.500;2023-06-14T02:52:15;41.36;32.93;44.03;;
72686;Laerm;61365;52.162;4.500;2023-06-14T02:54:41;41.53;33.23;44.32;;
72686;Laerm;61365;52.162;4.500;2023-06-14T02:57:07;41.64;32.59;44.66;;
72686;Laerm;61365;52.162;4.500;2023-06-14T02:59:34;41.49;32.94;44.28;;
72686;Laerm;61365;52.162;4.500;2023-06-14T03:02:01;41.28;32.75;44.10;;
72686;Laerm;61365;52.162;4.500;2023-06-14T03:04:27;41.61;33.07;52.24;;
72686;Laerm;61365;52.162;4.500;2023-06-14T03:06:54;41.34;32.52;44.11;;
72686;Laerm;61365;52.162;4.500;2023-06-14T03:09:22;41.42;32.84;51.86;;
72686;Laerm;61365;52.162;4.500;2023-06-14T03:11:48;41.60;33.08;44.66;;
72686;Laerm;61365;52.162;4.500;2023-06-14T03:14:14;41.43;32.96;44.64;;
72686;Laerm;61365;52.162;4.500;2023-06-14T03:16:40;41.35;33.06;44.34;;
72686;Laerm;61365;52.162;4.500;2023-06-14T03:19:07;41.51;32.66;44.68;;
72686;Laerm;61365;52.162;4.500;2023-06-14T03:21:33;41.39;33.05;44.20;;
72686;Laerm;61365;52.162;4.500;2023-06-14T03:24:00;41.48;32.86;44.46;;
72686;Laerm;61365;52.162;4.500;2023-06-14T03:26:27;41.50;33.19;44.29;;
72686;Laerm;61365;52.162;4.500;2023-06-14T03:28:53;41.32;33.28;44.28;;
72686;Laerm;61365;52.162;4.500;2023-06-14T03:31:20;41.40;33.21;44.18;;
72686;Laerm;61365;52.162;4.500;2023-06-14T03:33:46;41.34;32.89;44.40;;
72686;Laerm;61365;52.162;4.500;2023-06-14T03:36:12;41.40;32.57;44.12;;
72686;Laerm;61365;52.162;4.500;2023-06-14T03:38:38;41.30;32.82;44.12;;
72686;Laerm;61365;52.162;4.500;2023-06-14T03:41:04;41.33;33.02;44.20;;
72686;Laerm;61365;52.162;4.500;2023-06-14T03:43:30;41.38;33.23;44.27;;
72686;Laerm;61365;52.162;4.500;2023-06-14T03:45:56;41.50;33.16;44.26;;
72686;Laerm;61365;52.162;4.500;2023-06-14T03:48:22;41.56;33.09;44.39;;
72686;Laerm;61365;52.162;4.500;2023-06-14T03:50:49;41.45;33.13;44.32;;
72686;Laerm;61365;52.162;4.500;2023-06-14T03:53:15;41.40;33.04;44.22;;
72686;Laerm;61365;52.162;4.500;2023-06-14T03:55:41;41.41;33.05;44.44;;
72686;Laerm;61365;52.162;4.500;2023-06-14T03:58:07;41.39;32.82;44.47;;
72686;Laerm;61365;52.162;4.500;2023-06-14T04:00:33;41.19;32.88;44.30;;
72686;Laerm;61365;52.162;4.500;2023-06-14T04:02:59;41.34;32.90;44.45;;
72686;Laerm;61365;52.162;4.500;2023-06-14T04:05:25;41.28;32.73;44.35;;
72686;Laerm;61365;52.162;4.500;2023-06-14T04:07:54;41.21;32.52;52.41;;
72686;Laerm;61365;52.162;4.500;2023-06-14T04:10:21;41.13;33.02;43.98;;
72686;Laerm;61365;52.162;4.500;2023-06-14T04:12:47;40.91;32.99;44.50;;
72686;Laerm;61365;52.162;4.500;2023-06-14T04:15:14;40.72;32.42;52.07;;
72686;Laerm;61365;52.162;4.500;2023-06-14T04:17:40;40.63;32.21;43.71;;
72686;Laerm;61365;52.162;4.500;2023-06-14T04:20:07;40.61;32.51;43.91;;
72686;Laerm;61365;52.162;4.500;2023-06-14T04:22:35;40.79;32.28;43.59;;
72686;Laerm;61365;52.162;4.500;2023-06-14T04:25:02;40.75;32.44;43.56;;
72686;Laerm;61365;52.162;4.500;2023-06-14T04:27:29;40.62;32.14;43.91;;
72686;Laerm;61365;52.162;4.500;2023-06-14T04:29:57;40.83;32.68;43.70;;
72686;Laerm;61365;52.162;4.500;2023-06-14T04:32:26;40.78;32.46;45.12;;
72686;Laerm;61365;52.162;4.500;2023-06-14T04:34:53;40.78;33.02;43.86;;
72686;Laerm;61365;52.162;4.500;2023-06-14T04:37:21;41.08;32.17;44.15;;
72686;Laerm;61365;52.162;4.500;2023-06-14T04:39:50;40.74;32.54;43.68;;
72686;Laerm;61365;52.162;4.500;2023-06-14T04:42:17;40.81;32.63;44.14;;
72686;Laerm;61365;52.162;4.500;2023-06-14T04:44:46;40.76;32.27;43.54;;
72686;Laerm;61365;52.162;4.500;2023-06-14T04:47:14;40.75;32.05;43.93;;
72686;Laerm;61365;52.162;4.500;2023-06-14T04:49:42;40.75;32.28;43.40;;
72686;Laerm;61365;52.162;4.500;2023-06-14T04:52:08;40.81;32.70;43.87;;
72686;Laerm;61365;52.162;4.500;2023-06-14T04:54:36;40.85;31.95;43.66;;
72686;Laerm;61365;52.162;4.500;2023-06-14T04:57:09;40.91;32.76;44.38;;
72686;Laerm;61365;52.162;4.500;2023-06-14T04:59:40;40.85;32.95;44.10;;
72686;Laerm;61365;52.162;4.500;2023-06-14T05:02:06;40.84;32.20;43.69;;
72686;Laerm;61365;52.162;4.500;2023-06-14T05:04:33;40.73;32.61;43.82;;
72686;Laerm;61365;52.162;4.500;2023-06-14T05:06:59;40.87;32.91;43.95;;
72686;Laerm;61365;52.162;4.500;2023-06-14T05:09:26;40.82;32.37;43.91;;
72686;Laerm;61365;52.162;4.500;2023-06-14T05:11:52;40.80;32.70;43.82;;
72686;Laerm;61365;52.162;4.500;2023-06-14T05:14:19;40.83;32.37;43.82;;
72686;Laerm;61365;52.162;4.500;2023-06-14T05:16:45;40.90;32.45;43.87;;
72686;Laerm;61365;52.162;4.500;2023-06-14T05:19:11;40.76;32.76;43.66;;
72686;Laerm;61365;52.162;4.500;2023-06-14T05:21:38;40.73;32.53;44.06;;
72686;Laerm;61365;52.162;4.500;2023-06-14T05:24:04;40.86;32.32;43.99;;
72686;Laerm;61365;52.162;4.500;2023-06-14T05:26:31;40.84;32.42;44.12;;
72686;Laerm;61365;52.162;4.500;2023-06-14T05:28:57;40.78;32.44;50.76;;
72686;Laerm;61365;52.162;4.500;2023-06-14T05:31:24;40.74;32.21;51.25;;
72686;Laerm;61365;52.162;4.500;2023-06-14T05:33:52;40.86;32.24;44.75;;
72686;Laerm;61365;52.162;4.500;2023-06-14T05:36:19;40.83;33.03;43.97;;
72686;Laerm;61365;52.162;4.500;2023-06-14T05:38:45;40.79;32.73;43.98;;
72686;Laerm;61365;52.162;4.500;2023-06-14T05:41:12;40.67;32.26;43.84;;
72686;Laerm;61365;52.162;4.500;2023-06-14T05:43:38;40.81;32.53;51.62;;
72686;Laerm;61365;52.162;4.500;2023-06-14T05:46:04;40.78;32.69;43.55;;
72686;Laerm;61365;52.162;4.500;2023-06-14T05:48:30;40.62;32.77;43.72;;
72686;Laerm;61365;52.162;4.500;2023-06-14T05:50:57;40.55;32.52;43.55;;
72686;Laerm;61365;52.162;4.500;2023-06-14T05:53:23;40.76;32.18;43.62;;
72686;Laerm;61365;52.162;4.500;2023-06-14T05:55:50;40.68;32.59;43.44;;
72686;Laerm;61365;52.162;4.500;2023-06-14T05:58:21;40.69;32.29;43.43;;
72686;Laerm;61365;52.162;4.500;2023-06-14T06:00:47;40.67;32.92;43.48;;
72686;Laerm;61365;52.162;4.500;2023-06-14T06:03:14;40.88;32.36;43.64;;
72686;Laerm;61365;52.162;4.500;2023-06-14T06:05:40;40.67;32.72;43.76;;
72686;Laerm;61365;52.162;4.500;2023-06-14T06:08:06;40.65;32.42;43.67;;
72686;Laerm;61365;52.162;4.500;2023-06-14T06:10:32;40.63;32.33;43.63;;
72686;Laerm;61365;52.162;4.500;2023-06-14T06:12:58;40.60;32.71;43.35;;
72686;Laerm;61365;52.162;4.500;2023-06-14T06:15:24;40.54;32.34;43.79;;
72686;Laerm;61365;52.162;4.500;2023-06-14T06:17:50;40.65;32.03;52.06;;
72686;Laerm;61365;52.162;4.500;2023-06-14T06:20:17;40.70;32.65;43.50;;
72686;Laerm;61365;52.162;4.500;2023-06-14T06:22:43;40.66;32.71;43.50;;
72686;Laerm;61365;52.162;4.500;2023-06-14T06:25:09;40.89;32.59;43.67;;
72686;Laerm;61365;52.162;4.500;2023-06-14T06:27:35;40.59;32.30;43.53;;
72686;Laerm;61365;52.162;4.500;2023-06-14T06:30:03;40.74;32.44;43.86;;
72686;Laerm;61365;52.162;4.500;2023-06-14T06:32:30;40.65;32.42;43.49;;
72686;Laerm;61365;52.162;4.500;2023-06-14T06:34:56;40.45;32.60;43.62;;
72686;Laerm;61365;52.162;4.500;2023-06-14T06:37:22;40.19;32.57;43.37;;
72686;Laerm;61365;52.162;4.500;2023-06-14T06:39:48;40.55;32.15;43.94;;
72686;Laerm;61365;52.162;4.500;2023-06-14T06:42:14;40.72;32.42;43.62;;
72686;Laerm;61365;52.162;4.500;2023-06-14T06:44:40;40.63;32.68;52.12;;
72686;Laerm;61365;52.162;4.500;2023-06-14T06:47:06;40.65;32.57;43.76;;
72686;Laerm;61365;52.162;4.500;2023-06-14T06:49:33;40.77;32.55;43.43;;
72686;Laerm;61365;52.162;4.500;2023-06-14T06:52:06;40.63;32.25;43.50;;
72686;Laerm;61365;52.162;4.500;2023-06-14T06:54:33;40.67;32.30;43.46;;
72686;Laerm;61365;52.162;4.500;2023-06-14T06:57:00;40.58;32.05;43.77;;
72686;Laerm;61365;52.162;4.500;2023-06-14T06:59:27;40.60;32.58;43.50;;
72686;Laerm;61365;52.162;4.500;2023-06-14T07:01:53;40.69;32.57;43.63;;
72686;Laerm;61365;52.162;4.500;2023-06-14T07:04:19;40.29;31.80;43.51;;
72686;Laerm;61365;52.162;4.500;2023-06-14T07:06:46;40.34;32.40;43.25;;
72686;Laerm;61365;52.162;4.500;2023-06-14T07:09:13;40.45;32.15;43.63;;
72686;Laerm;61365;52.162;4.500;2023-06-14T07:11:40;40.32;32.19;43.35;;
72686;Laerm;61365;52.162;4.500;2023-06-14T07:14:07;40.27;31.83;43.54;;
72686;Laerm;61365;52.162;4.500;2023-06-14T07:16:33;40.37;32.25;43.30;;
72686;Laerm;61365;52.162;4.500;2023-06-14T07:18:59;40.36;32.47;43.41;;
72686;Laerm;61365;52.162;4.500;2023-06-14T07:21:26;40.42;32.36;49.55;;
72686;Laerm;61365;52.162;4.500;2023-06-14T07:23:53;40.40;32.11;52.54;;
72686;Laerm;61365;52.162;4.500;2023-06-14T07:26:20;40.21;32.29;44.43;;
72686;Laerm;61365;52.162;4.500;2023-06-14T07:28:47;40.33;32.26;43.46;;
72686;Laerm;61365;52.162;4.500;2023-06-14T07:31:13;40.46;31.56;43.44;;
72686;Laerm;61365;52.162;4.500;2023-06-14T07:33:40;40.23;32.30;43.43;;
72686;Laerm;61365;52.162;4.500;2023-06-14T07:36:06;40.18;32.09;43.25;;
72686;Laerm;61365;52.162;4.500;2023-06-14T07:38:33;40.32;32.46;43.39;;
72686;Laerm;61365;52.162;4.500;2023-06-14T07:40:59;40.24;32.02;43.15;;
72686;Laerm;61365;52.162;4.500;2023-06-14T07:43:26;40.14;32.21;43.43;;
72686;Laerm;61365;52.162;4.500;2023-06-14T07:45:52;40.26;32.10;43.55;;
72686;Laerm;61365;52.162;4.500;2023-06-14T07:48:18;40.27;32.06;43.46;;
72686;Laerm;61365;52.162;4.500;2023-06-14T07:50:45;40.36;32.35;43.36;;
72686;Laerm;61365;52.162;4.500;2023-06-14T07:53:11;40.20;32.13;43.34;;
72686;Laerm;61365;52.162;4.500;2023-06-14T07:55:37;40.31;32.34;43.35;;
72686;Laerm;61365;52.162;4.500;2023-06-14T07:58:06;39.77;32.04;43.47;;
72686;Laerm;61365;52.162;4.500;2023-06-14T08:00:32;40.18;32.22;43.51;;
72686;Laerm;61365;52.162;4.500;2023-06-14T08:02:58;40.15;31.84;43.85;;
72686;Laerm;61365;52.162;4.500;2023-06-14T08:05:25;40.33;32.08;43.73;;
72686;Laerm;61365;52.162;4.500;2023-06-14T08:07:52;40.28;31.97;43.26;;
72686;Laerm;61365;52.162;4.500;2023-06-14T08:10:18;40.50;31.91;52.12;;
72686;Laerm;61365;52.162;4.500;2023-06-14T08:12:44;40.41;32.57;43.25;;
72686;Laerm;61365;52.162;4.500;2023-06-14T08:15:10;40.36;32.18;43.45;;
72686;Laerm;61365;52.162;4.500;2023-06-14T08:17:37;40.35;32.53;43.42;;
72686;Laerm;61365;52.162;4.500;2023-06-14T08:20:03;40.30;31.95;51.84;;
72686;Laerm;61365;52.162;4.500;2023-06-14T08:22:31;40.13;32.21;48.34;;
72686;Laerm;61365;52.162;4.500;2023-06-14T08:25:00;40.24;32.15;43.43;;
72686;Laerm;61365;52.162;4.500;2023-06-14T08:27:27;40.34;32.05;43.17;;
72686;Laerm;61365;52.162;4.500;2023-06-14T08:29:53;40.26;31.92;43.67;;
72686;Laerm;61365;52.162;4.500;2023-06-14T08:32:19;40.36;32.40;43.33;;
72686;Laerm;61365;52.162;4.500;2023-06-14T08:34:45;40.41;32.48;43.62;;
72686;Laerm;61365;52.162;4.500;2023-06-14T08:37:11;40.33;32.51;43.48;;
72686;Laerm;61365;52.162;4.500;2023-06-14T08:39:38;40.36;32.82;43.29;;
72686;Laerm;61365;52.162;4.500;2023-06-14T08:42:05;40.23;32.40;43.48;;
72686;Laerm;61365;52.162;4.500;2023-06-14T08:44:33;40.20;32.34;45.06;;
72686;Laerm;61365;52.162;4.500;2023-06-14T08:47:00;40.10;31.79;50.07;;
72686;Laerm;61365;52.162;4.500;2023-06-14T08:49:26;40.02;31.92;43.59;;
72686;Laerm;61365;52.162;4.500;2023-06-14T08:52:00;40.25;32.19;43.16;;
72686;Laerm;61365;52.162;4.500;2023-06-14T08:54:30;40.28;32.45;43.19;;
72686;Laerm;61365;52.162;4.500;2023-06-14T08:56:58;40.25;32.04;43.43;;
72686;Laerm;61365;52.162;4.500;2023-06-14T08:59:28;40.15;32.11;52.12;;
72686;Laerm;61365;52.162;4.500;2023-06-14T09:01:54;40.17;32.15;43.24;;
72686;Laerm;61365;52.162;4.500;2023-06-14T09:04:21;40.28;32.48;43.30;;
72686;Laerm;61365;52.162;4.500;2023-06-14T09:06:48;40.16;32.42;43.14;;
72686;Laerm;61365;52.162;4.500;2023-06-14T09:09:20;40.16;32.36;43.04;;
72686;Laerm;61365;52.162;4.500;2023-06-14T09:11:46;40.08;32.08;43.36;;
72686;Laerm;61365;52.162;4.500;2023-06-14T09:14:13;40.19;32.43;43.22;;
72686;Laerm;61365;52.162;4.500;2023-06-14T09:16:39;40.13;32.16;43.23;;
72686;Laerm;61365;52.162;4.500;2023-06-14T09:19:06;40.11;32.52;44.12;;
72686;Laerm;61365;52.162;4.500;2023-06-14T09:21:34;40.10;31.78;44.24;;
72686;Laerm;61365;52.162;4.500;2023-06-14T09:24:01;40.13;32.11;43.56;;
72686;Laerm;61365;52.162;4.500;2023-06-14T09:26:28;40.23;31.73;43.35;;
72686;Laerm;61365;52.162;4.500;2023-06-14T09:28:55;40.15;32.14;43.58;;
72686;Laerm;61365;52.162;4.500;2023-06-14T09:31:21;40.06;32.14;45.36;;
72686;Laerm;61365;52.162;4.500;2023-06-14T09:33:51;40.13;32.36;43.18;;
72686;Laerm;61365;52.162;4.500;2023-06-14T09:36:21;40.17;32.43;49.93;;
72686;Laerm;61365;52.162;4.500;2023-06-14T09:38:55;40.11;31.77;43.22;;
72686;Laerm;61365;52.162;4.500;2023-06-14T09:41:34;39.61;31.80;43.19;;
72686;Laerm;61365;52.162;4.500;2023-06-14T09:44:01;40.07;32.08;43.47;;
72686;Laerm;61365;52.162;4.500;2023-06-14T09:46:28;40.05;32.27;43.24;;
72686;Laerm;61365;52.162;4.500;2023-06-14T09:48:58;40.02;32.05;43.38;;
72686;Laerm;61365;52.162;4.500;2023-06-14T09:51:25;40.13;32.25;43.34;;
72686;Laerm;61365;52.162;4.500;2023-06-14T09:53:55;40.07;31.85;43.18;;
72686;Laerm;61365;52.162;4.500;2023-06-14T09:56:28;40.06;31.94;45.52;;
72686;Laerm;61365;52.162;4.500;2023-06-14T09:58:58;40.02;32.49;43.25;;
72686;Laerm;61365;52.162;4.500;2023-06-14T10:01:26;39.96;31.99;46.03;;
72686;Laerm;61365;52.162;4.500;2023-06-14T10:04:01;40.02;32.16;43.34;;
72686;Laerm;61365;52.162;4.500;2023-06-14T10:06:29;40.16;31.92;43.35;;
72686;Laerm;61365;52.162;4.500;2023-06-14T10:08:57;40.02;32.14;43.23;;
72686;Laerm;61365;52.162;4.500;2023-06-14T10:11:28;39.97;32.37;43.14;;
72686;Laerm;61365;52.162;4.500;2023-06-14T10:13:55;40.10;31.94;43.11;;
72686;Laerm;61365;52.162;4.500;2023-06-14T10:16:45;40.02;32.19;43.04;;
72686;Laerm;61365;52.162;4.500;2023-06-14T10:19:21;40.06;32.43;43.39;;
72686;Laerm;61365;52.162;4.500;2023-06-14T10:21:58;40.00;32.37;43.24;;
72686;Laerm;61365;52.162;4.500;2023-06-14T10:24:41;39.99;32.45;42.93;;
72686;Laerm;61365;52.162;4.500;2023-06-14T10:27:08;40.08;32.45;43.18;;
72686;Laerm;61365;52.162;4.500;2023-06-14T10:32:18;40.26;32.21;43.14;;
72686;Laerm;61365;52.162;4.500;2023-06-14T10:34:45;40.26;32.14;43.24;;
72686;Laerm;61365;52.162;4.500;2023-06-14T10:37:13;40.17;32.33;43.44;;
72686;Laerm;61365;52.162;4.500;2023-06-14T10:39:44;40.23;31.95;43.26;;
72686;Laerm;61365;52.162;4.500;2023-06-14T10:42:14;40.28;31.95;44.86;;
72686;Laerm;61365;52.162;4.500;2023-06-14T10:44:45;40.36;32.40;45.99;;
72686;Laerm;61365;52.162;4.500;2023-06-14T10:50:07;40.08;32.30;43.40;;
72686;Laerm;61365;52.162;4.500;2023-06-14T10:52:38;40.29;32.46;50.47;;
72686;Laerm;61365;52.162;4.500;2023-06-14T10:55:15;40.17;31.92;44.34;;
72686;Laerm;61365;52.162;4.500;2023-06-14T10:57:49;39.91;32.22;42.97;;
72686;Laerm;61365;52.162;4.500;2023-06-14T11:00:23;40.15;32.48;43.37;;
72686;Laerm;61365;52.162;4.500;2023-06-14T11:05:26;40.24;32.25;43.28;;
72686;Laerm;61365;52.162;4.500;2023-06-14T11:08:22;40.25;32.08;43.34;;
72686;Laerm;61365;52.162;4.500;2023-06-14T11:10:54;40.32;32.21;43.31;;
72686;Laerm;61365;52.162;4.500;2023-06-14T11:13:24;40.34;32.24;43.29;;
72686;Laerm;61365;52.162;4.500;2023-06-14T11:15:51;40.27;32.30;43.19;;
72686;Laerm;61365;52.162;4.500;2023-06-14T11:18:21;40.36;32.13;43.09;;
72686;Laerm;61365;52.162;4.500;2023-06-14T11:20:50;40.24;32.21;43.02;;
72686;Laerm;61365;52.162;4.500;2023-06-14T11:23:16;40.16;32.47;43.34;;
72686;Laerm;61365;52.162;4.500;2023-06-14T11:25:42;40.15;32.10;43.30;;
72686;Laerm;61365;52.162;4.500;2023-06-14T11:28:08;40.24;31.97;43.23;;
72686;Laerm;61365;52.162;4.500;2023-06-14T11:30:34;40.22;31.79;44.31;;
72686;Laerm;61365;52.162;4.500;2023-06-14T11:33:00;40.08;31.87;43.25;;
72686;Laerm;61365;52.162;4.500;2023-06-14T11:35:27;40.30;32.10;43.29;;
72686;Laerm;61365;52.162;4.500;2023-06-14T11:37:56;40.32;32.17;43.41;;
72686;Laerm;61365;52.162;4.500;2023-06-14T11:40:26;40.26;32.52;43.07;;
72686;Laerm;61365;52.162;4.500;2023-06-14T11:43:00;40.27;31.91;43.37;;
72686;Laerm;61365;52.162;4.500;2023-06-14T11:45:29;40.19;32.29;43.36;;
72686;Laerm;61365;52.162;4.500;2023-06-14T11:47:57;40.20;32.11;43.05;;
72686;Laerm;61365;52.162;4.500;2023-06-14T11:50:24;40.27;32.07;43.09;;
72686;Laerm;61365;52.162;4.500;2023-06-14T11:52:59;40.41;32.54;43.09;;
72686;Laerm;61365;52.162;4.500;2023-06-14T11:55:37;40.31;31.93;43.29;;
72686;Laerm;61365;52.162;4.500;2023-06-14T11:58:04;40.43;32.23;43.26;;
72686;Laerm;61365;52.162;4.500;2023-06-14T12:00:30;40.25;32.27;45.35;;
72686;Laerm;61365;52.162;4.500;2023-06-14T12:02:57;40.31;32.22;43.16;;
72686;Laerm;61365;52.162;4.500;2023-06-14T12:05:24;39.62;31.89;50.26;;
72686;Laerm;61365;52.162;4.500;2023-06-14T12:07:58;40.28;32.28;43.38;;
72686;Laerm;61365;52.162;4.500;2023-06-14T12:10:26;40.35;32.13;45.56;;
72686;Laerm;61365;52.162;4.500;2023-06-14T12:12:57;40.35;31.66;43.21;;
72686;Laerm;61365;52.162;4.500;2023-06-14T12:15:24;40.44;32.63;43.85;;
72686;Laerm;61365;52.162;4.500;2023-06-14T12:17:50;40.31;32.03;43.11;;
72686;Laerm;61365;52.162;4.500;2023-06-14T12:20:18;40.39;32.09;43.30;;
72686;Laerm;61365;52.162;4.500;2023-06-14T12:22:51;40.31;32.40;44.40;;
72686;Laerm;61365;52.162;4.500;2023-06-14T12:25:26;40.36;32.22;43.12;;
72686;Laerm;61365;52.162;4.500;2023-06-14T12:27:54;40.48;32.56;43.17;;
72686;Laerm;61365;52.162;4.500;2023-06-14T12:30:20;40.40;31.99;43.44;;
72686;Laerm;61365;52.162;4.500;2023-06-14T12:32:46;40.39;32.64;43.33;;
72686;Laerm;61365;52.162;4.500;2023-06-14T12:35:13;40.34;32.61;43.12;;
72686;Laerm;61365;52.162;4.500;2023-06-14T12:37:39;40.22;31.98;43.22;;
72686;Laerm;61365;52.162;4.500;2023-06-14T12:40:06;40.33;32.13;43.68;;
72686;Laerm;61365;52.162;4.500;2023-06-14T12:42:32;40.23;31.79;43.25;;
72686;Laerm;61365;52.162;4.500;2023-06-14T12:44:59;40.29;32.58;43.18;;
72686;Laerm;61365;52.162;4.500;2023-06-14T12:47:25;40.32;32.28;43.21;;
72686;Laerm;61365;52.162;4.500;2023-06-14T12:49:52;40.29;32.25;43.27;;
72686;Laerm;61365;52.162;4.500;2023-06-14T12:52:18;40.32;32.54;44.99;;
72686;Laerm;61365;52.162;4.500;2023-06-14T12:54:44;40.33;32.38;43.43;;
72686;Laerm;61365;52.162;4.500;2023-06-14T12:57:10;40.35;31.84;43.33;;
72686;Laerm;61365;52.162;4.500;2023-06-14T12:59:37;40.43;32.35;45.52;;
72686;Laerm;61365;52.162;4.500;2023-06-14T13:02:19;40.38;32.56;43.27;;
72686;Laerm;61365;52.162;4.500;2023-06-14T13:04:50;40.33;32.33;43.30;;
72686;Laerm;61365;52.162;4.500;2023-06-14T13:07:16;40.38;32.37;43.21;;
72686;Laerm;61365;52.162;4.500;2023-06-14T13:09:43;40.28;32.47;45.41;;
72686;Laerm;61365;52.162;4.500;2023-06-14T13:12:12;40.26;32.45;43.20;;
72686;Laerm;61365;52.162;4.500;2023-06-14T13:14:39;40.27;32.59;43.62;;
72686;Laerm;61365;52.162;4.500;2023-06-14T13:17:10;40.35;33.07;43.70;;
72686;Laerm;61365;52.162;4.500;2023-06-14T13:19:36;40.29;31.98;43.18;;
72686;Laerm;61365;52.162;4.500;2023-06-14T13:22:03;40.38;32.26;44.28;;
72686;Laerm;61365;52.162;4.500;2023-06-14T13:24:29;40.39;31.94;43.19;;
72686;Laerm;61365;52.162;4.500;2023-06-14T13:26:56;40.29;32.30;43.10;;
72686;Laerm;61365;52.162;4.500;2023-06-14T13:29:24;40.25;32.29;52.13;;
72686;Laerm;61365;52.162;4.500;2023-06-14T13:31:50;40.37;32.36;43.80;;
72686;Laerm;61365;52.162;4.500;2023-06-14T13:34:17;40.33;32.22;43.45;;
72686;Laerm;61365;52.162;4.500;2023-06-14T13:36:43;40.40;32.61;51.29;;
72686;Laerm;61365;52.162;4.500;2023-06-14T13:39:09;40.29;32.48;43.52;;
72686;Laerm;61365;52.162;4.500;2023-06-14T13:41:36;40.27;32.16;43.22;;
72686;Laerm;61365;52.162;4.500;2023-06-14T13:44:03;40.24;32.11;43.56;;
72686;Laerm;61365;52.162;4.500;2023-06-14T13:46:31;39.99;31.61;43.18;;
72686;Laerm;61365;52.162;4.500;2023-06-14T13:48:58;39.91;31.88;43.43;;
72686;Laerm;61365;52.162;4.500;2023-06-14T13:51:24;40.01;31.67;43.16;;
72686;Laerm;61365;52.162;4.500;2023-06-14T13:53:53;40.12;32.03;43.26;;
72686;Laerm;61365;52.162;4.500;2023-06-14T13:56:20;40.03;32.13;43.48;;